Decoded Metar for RCMQ (CHINGCHUAKANG in TAIWAN) (IATA:N/A) | Meteo·Mobile Aviation Weather
aviador You're here:

RCMQ Decoded Metar

CHINGCHUAKANG in TAIWAN
Report Time2018-12-16 15:00:00
UTC Time2018-12-16 15:23:38
Flight Rules vfr VFR
Wind020° at 07 kt
W.Decomp.*RWY 36: 6.4 kt HW 2.7 kt RCW
W.Rank020° ranks 2
Current wind is below 020° avg. (9.8)
Visibility9999 m
Phenomena:N/A
Clouds:Few 010 Hf
Broken 050 Hf
Expected CloudBase > 1,600 ft AGL from Temp-Dew spread
Ceiling5,000 ft
Temp18°C (ISA +3)
Dew Point14°C (78% RH)
AAT16.8°C
QNH1019 hPa
Density Alt384 ft
Elevation16 ft
Report Wrong Elevation
Raw Report
RCMQ 161500Z 02007KT 9999 FEW010 BKN050 18/14 Q1019 RMK A3010=

Extra information for RCMQ:More info

Metar Taf Metar & Taf Last 4 Metars F.Rules Stats Wind Profile Meteogram Temp Stats Airport Information Weather charts Add Link Nearby VenuesMetar ALERT Operation Metar Decoded Social comments